Time;durP1;ratioP1;P1;durP2;ratioP2;P2;SDS_P1;SDS_P2;PMS_P1;PMS_P2;Temp;Humidity;BMP_temperature;BMP_pressure;BME280_temperature;BME280_humidity;BME280_pressure;Samples;Min_cycle;Max_cycle;Signal;HPM_P1;HPM_P2
2021/09/07 00:02:10;;;;;;;43.42;23.42;;;16.50;99.90;;;;;;4861746;29;20037;-90
2021/09/07 00:04:35;;;;;;;37.80;24.20;;;16.50;99.90;;;;;;4869387;29;20040;-91
2021/09/07 00:07:01;;;;;;;43.15;25.88;;;16.40;99.90;;;;;;4876910;29;20095;-92
2021/09/07 00:09:27;;;;;;;43.83;24.33;;;16.40;99.90;;;;;;4876686;29;20052;-90
2021/09/07 00:11:53;;;;;;;41.95;24.20;;;16.40;99.90;;;;;;4876685;29;20033;-91
2021/09/07 00:14:19;;;;;;;42.58;24.05;;;16.30;99.90;;;;;;4861450;29;20124;-90
2021/09/07 00:16:44;;;;;;;41.40;24.52;;;16.30;99.90;;;;;;4877093;29;20097;-90
2021/09/07 00:19:10;;;;;;;37.17;23.80;;;16.20;99.90;;;;;;4876901;29;20025;-91
2021/09/07 00:21:36;;;;;;;42.60;24.33;;;16.20;99.90;;;;;;4877154;29;20029;-90
2021/09/07 00:24:01;;;;;;;36.40;23.83;;;16.10;99.90;;;;;;4877338;29;20088;-90
2021/09/07 00:26:27;;;;;;;37.53;23.52;;;16.10;99.90;;;;;;4884605;29;20056;-90
2021/09/07 00:28:53;;;;;;;38.88;23.15;;;16.10;99.90;;;;;;4895914;29;20159;-90
2021/09/07 00:31:18;;;;;;;38.75;24.33;;;16.00;99.90;;;;;;4895966;29;20033;-90
2021/09/07 00:33:44;;;;;;;43.50;24.70;;;16.00;99.90;;;;;;4897443;29;20542;-89
2021/09/07 00:36:09;;;;;;;38.88;23.88;;;16.00;99.90;;;;;;4899792;29;20033;-90
2021/09/07 00:38:35;;;;;;;39.88;24.02;;;16.00;99.90;;;;;;4899441;29;20025;-90
2021/09/07 00:55:01;;;;;;;41.67;24.02;;;15.80;99.90;;;;;;5170598;23;20086;-96
2021/09/07 00:57:29;;;;;;;41.65;24.63;;;15.80;99.90;;;;;;4916038;29;20043;-92
2021/09/07 00:59:55;;;;;;;42.58;23.08;;;15.80;99.90;;;;;;4905350;29;20421;-93
2021/09/07 01:02:21;;;;;;;43.30;24.30;;;15.80;99.90;;;;;;4905282;29;20056;-91
2021/09/07 01:04:48;;;;;;;41.63;24.38;;;15.70;99.90;;;;;;4920709;29;20036;-92
2021/09/07 01:07:17;;;;;;;43.35;24.20;;;15.70;99.90;;;;;;4924180;29;20028;-95
2021/09/07 01:09:43;;;;;;;40.30;23.85;;;15.60;99.90;;;;;;4924760;29;20038;-96
2021/09/07 01:12:11;;;;;;;41.95;25.38;;;15.60;99.90;;;;;;4924475;29;20035;-94
2021/09/07 01:14:38;;;;;;;43.38;25.02;;;15.60;99.90;;;;;;4923343;29;20032;-95
2021/09/07 01:17:16;;;;;;;41.22;24.55;;;15.50;99.90;;;;;;4923702;29;20034;-95
2021/09/07 01:19:42;;;;;;;48.67;28.77;;;15.50;99.90;;;;;;4908196;29;20404;-94
2021/09/07 01:22:09;;;;;;;45.33;28.08;;;15.50;99.90;;;;;;4923166;29;20075;-93
2021/09/07 01:24:35;;;;;;;44.70;26.35;;;15.40;99.90;;;;;;4923264;29;20027;-93
2021/09/07 01:27:05;;;;;;;44.50;26.58;;;15.30;99.90;;;;;;4923133;29;20028;-92
2021/09/07 01:29:35;;;;;;;42.25;23.58;;;15.30;99.90;;;;;;4922929;29;20130;-93
2021/09/07 01:32:03;;;;;;;44.03;27.15;;;15.30;99.90;;;;;;4922669;29;20024;-93
2021/09/07 01:34:29;;;;;;;44.88;25.75;;;15.30;99.90;;;;;;4923041;29;20031;-93
2021/09/07 01:36:56;;;;;;;42.72;27.08;;;15.20;99.90;;;;;;4922618;29;20023;-94
2021/09/07 01:39:22;;;;;;;42.85;25.58;;;15.20;99.90;;;;;;4922647;29;20023;-94
2021/09/07 01:41:48;;;;;;;53.63;25.40;;;15.20;99.90;;;;;;4922800;29;20485;-93
2021/09/07 01:44:15;;;;;;;45.90;24.88;;;15.10;99.90;;;;;;4921541;29;20032;-94
2021/09/07 01:46:41;;;;;;;49.28;25.77;;;15.00;99.90;;;;;;4921410;29;20039;-93
2021/09/07 01:49:09;;;;;;;43.85;24.40;;;14.90;99.90;;;;;;4920376;29;20035;-92
2021/09/07 01:51:36;;;;;;;38.13;24.00;;;14.90;99.90;;;;;;4919695;29;20028;-94
2021/09/07 01:54:03;;;;;;;40.55;24.33;;;14.90;99.90;;;;;;4919767;29;20074;-94
2021/09/07 01:56:29;;;;;;;36.13;22.70;;;14.80;99.90;;;;;;4919883;29;20044;-94
2021/09/07 01:58:55;;;;;;;37.20;22.95;;;14.70;99.90;;;;;;4919627;29;20118;-95
2021/09/07 02:01:20;;;;;;;36.53;23.70;;;14.80;99.90;;;;;;4919560;29;20035;-94
2021/09/07 02:03:46;;;;;;;40.28;25.42;;;14.70;99.90;;;;;;4920412;29;20512;-93
2021/09/07 02:06:13;;;;;;;39.97;24.23;;;14.70;99.90;;;;;;4921160;29;20405;-93
2021/09/07 02:08:39;;;;;;;44.33;25.05;;;14.70;99.90;;;;;;4920454;29;20036;-93
2021/09/07 02:11:04;;;;;;;42.97;24.65;;;14.70;99.90;;;;;;4920159;29;20035;-93
2021/09/07 02:13:30;;;;;;;47.08;27.30;;;14.70;99.90;;;;;;4920787;29;20117;-93
2021/09/07 02:15:55;;;;;;;39.63;23.75;;;14.80;99.90;;;;;;4920064;29;20060;-93
2021/09/07 02:18:21;;;;;;;43.88;25.67;;;14.70;99.90;;;;;;4920103;29;20126;-92
2021/09/07 02:20:47;;;;;;;41.90;23.10;;;14.70;99.90;;;;;;4919269;29;20030;-93
2021/09/07 02:23:12;;;;;;;40.30;23.27;;;14.70;99.90;;;;;;4919188;29;20027;-94
2021/09/07 02:25:38;;;;;;;43.88;25.38;;;14.70;99.90;;;;;;4918921;29;20019;-93
2021/09/07 02:28:04;;;;;;;39.75;23.75;;;14.70;99.90;;;;;;4919012;29;20054;-92
2021/09/07 02:30:30;;;;;;;38.97;23.73;;;14.60;99.90;;;;;;4918881;29;20103;-94
2021/09/07 02:32:56;;;;;;;35.30;23.40;;;14.60;99.90;;;;;;4918681;29;20036;-93
2021/09/07 02:35:22;;;;;;;38.80;23.27;;;14.60;99.90;;;;;;4919167;29;20030;-94
2021/09/07 02:37:48;;;;;;;31.40;21.55;;;14.50;99.90;;;;;;4920501;29;20024;-96
2021/09/07 02:40:14;;;;;;;31.58;22.08;;;14.50;99.90;;;;;;4928347;29;20485;-93
2021/09/07 02:42:40;;;;;;;33.70;21.00;;;14.40;99.90;;;;;;4929529;29;20024;-93
2021/09/07 02:45:06;;;;;;;38.88;23.60;;;14.40;99.90;;;;;;4928032;29;20039;-94
2021/09/07 02:47:32;;;;;;;37.60;22.80;;;14.30;99.90;;;;;;4918908;29;20036;-93
2021/09/07 02:49:58;;;;;;;43.95;25.58;;;14.20;99.90;;;;;;4921402;29;20039;-93
2021/09/07 02:52:23;;;;;;;40.50;24.73;;;14.20;99.90;;;;;;4924596;29;20028;-92
2021/09/07 02:54:49;;;;;;;41.92;23.05;;;14.20;99.90;;;;;;4922354;29;20074;-95
2021/09/07 02:57:15;;;;;;;39.85;24.60;;;14.20;99.90;;;;;;4921555;29;20038;-93
2021/09/07 02:59:40;;;;;;;44.38;23.20;;;14.20;99.90;;;;;;4926935;29;20039;-93
2021/09/07 03:02:06;;;;;;;42.30;24.15;;;14.10;99.90;;;;;;4928103;29;20060;-93
2021/09/07 03:04:32;;;;;;;42.60;24.70;;;14.20;99.90;;;;;;4941327;29;20015;-93
2021/09/07 03:06:57;;;;;;;39.92;22.63;;;14.20;99.90;;;;;;4924438;29;20028;-93
2021/09/07 03:09:23;;;;;;;42.38;22.55;;;14.20;99.90;;;;;;4941259;29;20036;-93
2021/09/07 03:11:49;;;;;;;36.83;22.75;;;14.20;99.90;;;;;;4938859;29;20152;-94
2021/09/07 03:14:15;;;;;;;34.47;21.27;;;14.20;99.90;;;;;;4933937;29;20040;-93
2021/09/07 03:16:40;;;;;;;33.33;22.20;;;14.10;99.90;;;;;;4933672;29;20056;-92
2021/09/07 03:19:06;;;;;;;99.45;25.58;;;14.10;99.90;;;;;;4933623;29;20028;-94
2021/09/07 03:21:32;;;;;;;105.82;28.50;;;14.00;99.90;;;;;;4933948;29;20036;-93
2021/09/07 03:23:58;;;;;;;42.78;26.95;;;13.90;99.90;;;;;;4932129;29;20020;-93
2021/09/07 03:26:24;;;;;;;50.03;27.42;;;13.80;99.90;;;;;;4930565;29;20070;-93
2021/09/07 03:28:49;;;;;;;45.22;25.55;;;13.80;99.90;;;;;;4910269;29;20039;-93
2021/09/07 03:31:15;;;;;;;41.83;26.35;;;13.80;99.90;;;;;;4924487;29;20041;-93
2021/09/07 03:33:41;;;;;;;39.50;24.90;;;13.70;99.90;;;;;;4922546;29;20035;-92
2021/09/07 03:36:07;;;;;;;53.15;26.95;;;13.70;99.90;;;;;;4921499;29;20490;-92
2021/09/07 03:38:32;;;;;;;56.75;28.30;;;13.70;99.90;;;;;;4921715;29;20042;-93
2021/09/07 03:40:58;;;;;;;61.22;30.98;;;13.70;99.90;;;;;;4920633;29;20019;-92
2021/09/07 03:43:24;;;;;;;62.05;29.67;;;13.70;99.90;;;;;;4920690;29;20032;-91
2021/09/07 03:45:49;;;;;;;54.88;28.02;;;13.70;99.90;;;;;;4920586;29;20560;-92
2021/09/07 03:48:15;;;;;;;42.85;26.55;;;13.70;99.90;;;;;;4920033;29;20038;-93
2021/09/07 03:50:41;;;;;;;43.03;26.48;;;13.70;99.90;;;;;;4919657;29;20389;-92
2021/09/07 03:53:06;;;;;;;51.25;27.83;;;13.70;99.90;;;;;;4919785;29;20114;-94
2021/09/07 03:55:32;;;;;;;48.78;26.27;;;13.70;99.90;;;;;;4919650;29;20138;-92
2021/09/07 03:57:58;;;;;;;41.65;24.08;;;13.70;99.90;;;;;;4919672;29;20035;-93
2021/09/07 04:00:23;;;;;;;46.00;25.10;;;13.70;99.90;;;;;;4919726;29;20027;-94
2021/09/07 04:02:49;;;;;;;46.50;25.98;;;13.70;99.90;;;;;;4919391;29;20131;-93
2021/09/07 04:05:15;;;;;;;53.50;28.27;;;13.70;99.90;;;;;;4919488;29;20083;-94
2021/09/07 04:07:41;;;;;;;47.55;26.95;;;13.60;99.90;;;;;;4920666;29;20024;-94
2021/09/07 04:10:07;;;;;;;44.90;25.73;;;13.60;99.90;;;;;;4923009;29;20035;-92
2021/09/07 04:12:33;;;;;;;66.57;29.60;;;13.60;99.90;;;;;;4922703;29;20114;-93
2021/09/07 04:14:59;;;;;;;56.47;29.45;;;13.60;99.90;;;;;;4922677;29;20126;-94
2021/09/07 04:17:24;;;;;;;52.90;29.50;;;13.60;99.90;;;;;;4922232;29;20030;-93
2021/09/07 04:19:50;;;;;;;80.47;28.27;;;13.60;99.90;;;;;;4922108;29;20374;-94
2021/09/07 04:22:15;;;;;;;76.20;30.48;;;13.50;99.90;;;;;;4922219;29;20055;-94
2021/09/07 04:24:41;;;;;;;50.58;28.90;;;13.50;99.90;;;;;;4922392;29;20028;-94
2021/09/07 04:27:07;;;;;;;51.55;28.50;;;13.50;99.90;;;;;;4922068;29;20024;-92
2021/09/07 04:29:32;;;;;;;51.28;29.38;;;13.50;99.90;;;;;;4922296;29;20047;-94
2021/09/07 04:31:58;;;;;;;75.82;29.38;;;13.50;99.90;;;;;;4922296;29;20063;-92
2021/09/07 04:34:23;;;;;;;52.03;29.17;;;13.40;99.90;;;;;;4922110;29;20036;-95
2021/09/07 04:36:49;;;;;;;55.65;29.10;;;13.40;99.90;;;;;;4922086;29;20599;-93
2021/09/07 04:39:15;;;;;;;44.90;28.63;;;13.40;99.90;;;;;;4921998;29;20038;-92
2021/09/07 04:41:40;;;;;;;45.42;27.88;;;13.40;99.90;;;;;;4922266;29;20032;-93
2021/09/07 04:44:06;;;;;;;84.47;28.00;;;13.40;99.90;;;;;;4921589;29;20389;-92
2021/09/07 04:46:33;;;;;;;72.93;28.75;;;13.40;99.90;;;;;;4921780;29;20035;-93
2021/09/07 04:48:59;;;;;;;52.97;27.95;;;13.40;99.90;;;;;;4921981;29;20032;-94
2021/09/07 04:51:26;;;;;;;51.50;28.88;;;13.30;99.90;;;;;;4921956;29;20076;-92
2021/09/07 04:53:52;;;;;;;49.78;29.50;;;13.30;99.90;;;;;;4922328;29;20034;-92
2021/09/07 04:56:18;;;;;;;46.35;28.77;;;13.30;99.90;;;;;;4922312;29;20051;-93
2021/09/07 04:58:44;;;;;;;47.50;27.92;;;13.20;99.90;;;;;;4922212;29;20082;-93
2021/09/07 05:01:11;;;;;;;84.32;30.42;;;13.30;99.90;;;;;;4922952;29;20484;-94
2021/09/07 05:03:37;;;;;;;51.38;29.60;;;13.20;99.90;;;;;;4922018;29;20126;-93
2021/09/07 05:10:54;;;;;;;60.90;31.75;;;13.20;99.90;;;;;;4890216;29;20059;-91
2021/09/07 05:13:19;;;;;;;53.05;30.85;;;13.20;99.90;;;;;;4886990;29;20032;-92
2021/09/07 05:15:45;;;;;;;52.22;31.27;;;13.20;99.90;;;;;;4885830;29;20472;-91
2021/09/07 05:18:11;;;;;;;93.72;30.40;;;13.20;99.90;;;;;;4900588;29;20099;-92
2021/09/07 05:20:37;;;;;;;67.63;30.88;;;13.30;99.90;;;;;;4915722;29;20031;-91
2021/09/07 05:23:02;;;;;;;56.05;30.90;;;13.20;99.90;;;;;;4918997;29;20038;-91
2021/09/07 05:25:30;;;;;;;51.35;29.77;;;13.30;99.90;;;;;;4902101;29;20069;-91
2021/09/07 05:30:43;;;;;;;79.20;31.63;;;13.30;99.90;;;;;;5825762;23;20060;-92
2021/09/07 05:33:09;;;;;;;87.65;31.80;;;13.30;99.90;;;;;;4903426;29;20036;-91
2021/09/07 05:35:35;;;;;;;59.28;33.08;;;13.30;99.90;;;;;;4921313;29;20115;-91
2021/09/07 05:38:03;;;;;;;58.78;30.13;;;13.30;99.90;;;;;;4903783;29;20039;-90
2021/09/07 05:40:28;;;;;;;101.05;30.13;;;13.30;99.90;;;;;;4928070;29;20043;-92
2021/09/07 05:42:54;;;;;;;60.95;31.25;;;13.30;99.90;;;;;;4937230;29;20024;-91
2021/09/07 05:45:19;;;;;;;76.13;29.42;;;13.30;99.90;;;;;;4919750;29;20485;-90
2021/09/07 05:47:45;;;;;;;53.15;29.38;;;13.20;99.90;;;;;;4919826;29;20039;-91
2021/09/07 05:50:14;;;;;;;61.95;28.67;;;13.20;99.90;;;;;;4910170;29;20024;-92
2021/09/07 05:52:41;;;;;;;54.65;29.02;;;13.20;99.90;;;;;;4918241;29;20028;-90
2021/09/07 05:55:07;;;;;;;58.92;27.60;;;13.20;99.90;;;;;;4926275;29;20032;-90
2021/09/07 05:57:32;;;;;;;68.70;29.73;;;13.10;99.90;;;;;;4909905;29;20032;-89
2021/09/07 05:59:59;;;;;;;57.20;29.15;;;13.10;99.90;;;;;;4899425;29;20748;-90
2021/09/07 06:02:25;;;;;;;59.92;28.85;;;13.10;99.90;;;;;;4899478;29;20028;-89
2021/09/07 06:04:51;;;;;;;55.97;30.23;;;13.20;99.90;;;;;;4899430;29;20046;-90
2021/09/07 06:07:17;;;;;;;50.47;28.13;;;13.10;99.90;;;;;;4899464;29;20027;-91
2021/09/07 06:09:43;;;;;;;63.97;28.90;;;13.20;99.90;;;;;;4899293;29;20091;-89
2021/09/07 06:12:09;;;;;;;48.92;28.77;;;13.20;99.90;;;;;;4900927;29;20032;-90
2021/09/07 06:14:34;;;;;;;53.22;29.73;;;13.20;99.90;;;;;;4902888;29;20115;-90
2021/09/07 06:17:01;;;;;;;65.88;30.67;;;13.10;99.90;;;;;;4901916;29;20063;-90
2021/09/07 06:19:26;;;;;;;67.30;31.92;;;13.10;99.90;;;;;;4900171;29;20040;-91
2021/09/07 06:21:52;;;;;;;55.08;32.72;;;13.20;99.90;;;;;;4899042;29;20032;-91
2021/09/07 06:24:18;;;;;;;59.70;32.50;;;13.10;99.90;;;;;;4899276;29;20024;-90
2021/09/07 06:26:44;;;;;;;106.25;32.80;;;13.20;99.90;;;;;;4898959;29;20103;-90
2021/09/07 06:29:10;;;;;;;69.03;31.95;;;13.20;99.90;;;;;;4899047;29;20144;-91
2021/09/07 06:31:36;;;;;;;72.93;32.30;;;13.20;99.90;;;;;;4898527;29;20135;-92
2021/09/07 06:34:02;;;;;;;61.78;32.40;;;13.20;99.90;;;;;;4899367;29;20025;-91
2021/09/07 06:36:28;;;;;;;63.20;32.65;;;13.20;99.90;;;;;;4899298;29;20061;-93
2021/09/07 06:38:54;;;;;;;68.28;31.63;;;13.20;99.90;;;;;;4898768;29;20501;-91
2021/09/07 06:41:19;;;;;;;72.82;33.58;;;13.30;99.90;;;;;;4899205;29;20039;-91
2021/09/07 06:43:45;;;;;;;63.17;33.05;;;13.30;99.90;;;;;;4899687;29;20040;-91
2021/09/07 06:46:11;;;;;;;115.55;30.83;;;13.30;99.90;;;;;;4899687;29;20028;-92
2021/09/07 06:48:37;;;;;;;174.20;31.75;;;13.40;99.90;;;;;;4900371;29;20052;-92
2021/09/07 06:51:03;;;;;;;105.53;32.28;;;13.40;99.90;;;;;;4903172;29;20508;-93
2021/09/07 06:53:28;;;;;;;90.35;32.75;;;13.40;99.90;;;;;;4902182;29;20042;-91
2021/09/07 06:55:54;;;;;;;72.70;30.50;;;13.40;99.90;;;;;;4904871;29;20032;-91
2021/09/07 06:58:20;;;;;;;57.13;32.03;;;13.40;99.90;;;;;;4921520;29;20079;-91
2021/09/07 07:00:47;;;;;;;55.35;31.60;;;13.40;99.90;;;;;;4913927;29;20048;-91
2021/09/07 07:03:12;;;;;;;61.05;30.23;;;13.40;99.90;;;;;;4911597;29;20095;-90
2021/09/07 07:05:38;;;;;;;48.85;29.35;;;13.50;99.90;;;;;;4909752;29;20115;-92
2021/09/07 07:08:04;;;;;;;62.03;30.50;;;13.50;99.90;;;;;;4903203;29;20680;-91
2021/09/07 07:10:29;;;;;;;47.28;29.75;;;13.50;99.90;;;;;;4901004;29;20032;-91
2021/09/07 07:12:55;;;;;;;54.15;27.85;;;13.60;99.90;;;;;;4900509;29;20123;-92
2021/09/07 07:15:21;;;;;;;52.75;28.33;;;13.60;99.90;;;;;;4901516;29;20028;-92
2021/09/07 07:17:46;;;;;;;47.67;28.95;;;13.60;99.90;;;;;;4900252;29;20028;-93
2021/09/07 07:20:12;;;;;;;48.03;27.95;;;13.60;99.90;;;;;;4899524;29;20039;-92
2021/09/07 07:22:38;;;;;;;43.78;27.02;;;13.70;99.90;;;;;;4899458;29;20047;-93
2021/09/07 07:25:05;;;;;;;44.75;27.80;;;13.80;99.90;;;;;;4900578;29;20036;-90
2021/09/07 07:27:31;;;;;;;51.72;29.40;;;13.80;99.90;;;;;;4899186;29;20450;-93
2021/09/07 07:32:22;;;;;;;50.03;28.88;;;13.90;99.90;;;;;;4904700;23;20057;-92
2021/09/07 07:34:48;;;;;;;50.55;29.30;;;14.00;99.90;;;;;;4893753;29;20036;-91
2021/09/07 07:37:14;;;;;;;51.25;28.92;;;14.00;99.90;;;;;;4900228;29;20028;-90
2021/09/07 07:39:39;;;;;;;50.03;29.42;;;14.10;99.90;;;;;;4900318;29;20047;-91
2021/09/07 07:42:05;;;;;;;48.63;28.77;;;14.20;99.90;;;;;;4917759;29;20031;-91
2021/09/07 07:44:31;;;;;;;51.67;29.80;;;14.30;99.90;;;;;;4919970;29;20047;-91
2021/09/07 07:46:56;;;;;;;51.65;31.02;;;14.30;99.90;;;;;;4920052;29;20020;-91
2021/09/07 07:49:22;;;;;;;39.35;24.92;;;14.40;99.90;;;;;;4913229;29;20039;-93
2021/09/07 07:51:48;;;;;;;52.25;29.85;;;14.50;99.90;;;;;;4904449;29;20056;-91
2021/09/07 07:54:14;;;;;;;110.68;32.42;;;14.60;99.90;;;;;;4920747;29;20028;-92
2021/09/07 07:56:39;;;;;;;52.55;30.33;;;14.70;99.90;;;;;;4903700;29;20032;-91
2021/09/07 07:59:05;;;;;;;57.50;31.15;;;14.70;99.90;;;;;;4924491;29;20047;-90
2021/09/07 08:01:32;;;;;;;53.22;30.00;;;14.80;99.90;;;;;;4912972;29;20093;-91
2021/09/07 08:03:58;;;;;;;51.50;29.77;;;14.90;99.90;;;;;;4914724;29;20526;-91
2021/09/07 08:06:24;;;;;;;52.22;30.85;;;14.90;99.90;;;;;;4915154;29;20035;-91
2021/09/07 08:08:50;;;;;;;55.95;31.48;;;15.00;99.90;;;;;;4913656;29;20059;-92
2021/09/07 08:11:16;;;;;;;54.78;30.33;;;15.10;99.90;;;;;;4910427;29;20039;-92
2021/09/07 08:13:42;;;;;;;52.88;31.20;;;15.20;99.90;;;;;;4910539;29;20048;-91
2021/09/07 08:16:08;;;;;;;54.97;31.45;;;15.30;99.90;;;;;;4905736;29;20039;-92
2021/09/07 08:18:33;;;;;;;54.22;32.22;;;15.40;99.90;;;;;;4903842;29;20548;-91
2021/09/07 08:20:59;;;;;;;52.30;31.70;;;15.50;99.90;;;;;;4903837;29;20395;-92
2021/09/07 08:23:25;;;;;;;52.72;31.63;;;15.60;99.90;;;;;;4903626;29;20063;-91
2021/09/07 08:25:51;;;;;;;51.22;31.15;;;15.70;99.90;;;;;;4903541;29;20028;-90
2021/09/07 08:28:17;;;;;;;52.33;30.92;;;15.80;99.90;;;;;;4903898;29;20039;-91
2021/09/07 08:30:43;;;;;;;49.38;30.10;;;15.80;99.90;;;;;;4903655;29;20061;-92
2021/09/07 08:33:16;;;;;;;49.75;31.02;;;15.90;99.90;;;;;;4903191;29;20052;-94
2021/09/07 08:35:42;;;;;;;54.35;30.98;;;16.00;99.90;;;;;;4904388;29;20028;-91
2021/09/07 08:38:08;;;;;;;57.03;31.90;;;16.20;99.90;;;;;;4903649;29;20040;-91
2021/09/07 08:40:34;;;;;;;54.95;31.08;;;16.20;99.90;;;;;;4903486;29;20031;-91
2021/09/07 08:43:06;;;;;;;59.40;33.10;;;16.40;99.90;;;;;;4903904;29;20088;-90
2021/09/07 08:45:32;;;;;;;59.78;32.65;;;16.50;99.90;;;;;;4903786;29;20111;-93
2021/09/07 08:47:59;;;;;;;49.97;29.92;;;16.60;99.90;;;;;;4903472;29;20032;-92
2021/09/07 08:50:26;;;;;;;60.80;30.85;;;16.80;99.90;;;;;;4903164;29;20084;-91
2021/09/07 08:52:56;;;;;;;53.80;31.95;;;16.90;99.90;;;;;;4902672;29;20093;-90
2021/09/07 08:55:22;;;;;;;53.20;30.52;;;17.10;99.90;;;;;;4903761;29;20032;-90
2021/09/07 08:57:48;;;;;;;59.13;31.55;;;17.20;99.90;;;;;;4903215;29;20516;-90
2021/09/07 09:00:22;;;;;;;54.70;30.90;;;17.40;99.90;;;;;;4902849;29;20063;-91
2021/09/07 09:02:47;;;;;;;54.28;30.48;;;17.50;99.90;;;;;;4903015;29;20135;-90
2021/09/07 09:05:13;;;;;;;55.47;31.75;;;17.70;99.90;;;;;;4902954;29;20466;-91
2021/09/07 09:07:38;;;;;;;57.28;32.28;;;17.90;99.90;;;;;;4902948;29;20038;-92
2021/09/07 09:10:05;;;;;;;52.92;30.58;;;18.00;99.90;;;;;;4902866;29;20028;-92
2021/09/07 09:12:39;;;;;;;57.53;30.25;;;18.20;99.90;;;;;;4902560;29;20398;-90
2021/09/07 09:15:16;;;;;;;60.15;29.60;;;18.40;99.90;;;;;;4902941;29;20024;-92
2021/09/07 09:17:42;;;;;;;48.28;28.60;;;18.60;99.90;;;;;;4902745;29;20135;-90
2021/09/07 09:20:15;;;;;;;49.70;31.08;;;18.90;99.90;;;;;;4902813;29;20060;-90
2021/09/07 09:22:46;;;;;;;56.83;30.52;;;19.10;99.90;;;;;;4902515;29;20036;-91
2021/09/07 09:25:53;;;;;;;54.05;30.35;;;19.30;99.90;;;;;;4902674;29;20032;-91
2021/09/07 09:28:21;;;;;;;54.42;31.60;;;19.60;99.90;;;;;;4886320;29;20028;-91
2021/09/07 09:30:54;;;;;;;47.72;28.02;;;19.80;99.90;;;;;;4902830;29;20084;-91
2021/09/07 09:33:25;;;;;;;46.97;26.88;;;20.10;99.90;;;;;;4917978;29;20040;-90
2021/09/07 09:36:01;;;;;;;53.60;30.58;;;20.40;99.90;;;;;;4902249;29;20040;-90
2021/09/07 09:38:29;;;;;;;53.13;30.73;;;20.60;99.90;;;;;;4902277;29;20568;-91
2021/09/07 09:41:02;;;;;;;52.10;29.75;;;20.90;99.90;;;;;;4902485;29;20025;-91
2021/09/07 09:43:43;;;;;;;59.20;30.77;;;21.10;99.90;;;;;;4902344;29;20082;-92
2021/09/07 09:46:23;;;;;;;56.63;31.35;;;21.40;99.90;;;;;;4902341;29;20034;-91
2021/09/07 09:48:49;;;;;;;57.87;32.20;;;21.60;99.90;;;;;;4902318;29;20024;-91
2021/09/07 09:51:17;;;;;;;53.67;31.08;;;21.90;99.90;;;;;;4901781;29;20071;-91
2021/09/07 09:53:46;;;;;;;52.25;30.83;;;22.10;99.90;;;;;;4901983;29;20084;-93
2021/09/07 09:56:12;;;;;;;60.58;33.55;;;22.40;99.90;;;;;;4901988;29;20043;-90
2021/09/07 09:58:39;;;;;;;51.13;28.38;;;22.60;99.90;;;;;;4901993;29;20112;-91
2021/09/07 10:01:05;;;;;;;53.97;32.50;;;22.80;99.90;;;;;;4901528;29;20478;-92
2021/09/07 10:03:32;;;;;;;60.95;33.25;;;23.10;99.90;;;;;;4901605;29;20028;-91
2021/09/07 10:05:59;;;;;;;55.72;31.38;;;23.30;99.90;;;;;;4918024;29;20111;-92
2021/09/07 10:08:24;;;;;;;56.78;30.67;;;23.60;99.90;;;;;;4901459;29;20047;-92
2021/09/07 10:10:56;;;;;;;54.90;29.70;;;23.90;99.90;;;;;;4901741;29;20362;-90
2021/09/07 10:13:25;;;;;;;40.00;24.27;;;24.10;99.90;;;;;;4901475;29;20032;-90
2021/09/07 10:16:06;;;;;;;41.45;24.13;;;24.30;99.90;;;;;;4901596;29;20028;-91
2021/09/07 10:26:52;;;;;;;36.45;20.65;;;25.20;99.90;;;;;;4918330;29;20577;-91
2021/09/07 10:29:26;;;;;;;32.05;18.98;;;25.50;99.90;;;;;;4901613;29;20525;-91
2021/09/07 10:31:54;;;;;;;32.10;19.70;;;25.70;99.80;;;;;;4901258;29;20059;-90
2021/09/07 10:34:29;;;;;;;33.35;18.98;;;26.00;99.00;;;;;;4901252;29;20039;-90
2021/09/07 10:37:07;;;;;;;30.42;16.27;;;26.10;97.70;;;;;;4902255;29;20060;-93
2021/09/07 10:39:35;;;;;;;32.90;18.95;;;26.30;96.70;;;;;;4917305;29;20031;-92
2021/09/07 10:42:10;;;;;;;36.17;18.25;;;26.50;96.00;;;;;;4901805;29;20446;-93
2021/09/07 10:44:38;;;;;;;30.20;18.50;;;26.60;94.80;;;;;;4899915;29;20016;-93
2021/09/07 10:47:05;;;;;;;27.92;16.40;;;26.80;94.30;;;;;;4899471;29;20552;-93
2021/09/07 10:49:36;;;;;;;24.83;15.35;;;26.90;93.40;;;;;;4914424;29;20038;-92
2021/09/07 10:52:04;;;;;;;28.23;15.75;;;27.00;92.80;;;;;;4914538;29;20054;-93
2021/09/07 10:54:31;;;;;;;27.77;16.85;;;27.20;92.00;;;;;;4912730;29;20028;-93
2021/09/07 10:56:59;;;;;;;24.58;16.15;;;27.30;91.30;;;;;;4915354;29;20034;-92
2021/09/07 10:59:50;;;;;;;24.52;15.75;;;27.40;90.60;;;;;;4899771;29;20512;-92
2021/09/07 11:02:40;;;;;;;29.48;15.02;;;27.50;90.10;;;;;;4899484;29;20044;-92
2021/09/07 11:05:37;;;;;;;22.63;14.23;;;27.60;89.80;;;;;;4911074;29;20445;-91
2021/09/07 11:08:07;;;;;;;22.58;14.50;;;27.80;88.60;;;;;;4896760;29;20052;-94
2021/09/07 11:10:44;;;;;;;23.70;14.32;;;27.90;86.80;;;;;;4919778;29;20028;-95
2021/09/07 11:13:24;;;;;;;22.58;13.90;;;28.00;85.60;;;;;;4910679;29;20038;-94
2021/09/07 11:16:02;;;;;;;23.45;14.57;;;28.10;84.20;;;;;;4929078;29;20553;-94
2021/09/07 11:18:33;;;;;;;22.35;13.00;;;28.20;82.90;;;;;;4923677;29;20028;-96
2021/09/07 11:21:01;;;;;;;20.33;12.00;;;28.20;82.10;;;;;;4939001;29;20024;-94
2021/09/07 11:23:30;;;;;;;21.92;13.43;;;28.40;81.80;;;;;;4921771;29;20062;-94
2021/09/07 11:26:16;;;;;;;19.17;12.20;;;28.60;81.10;;;;;;4903528;29;20496;-95
2021/09/07 11:28:46;;;;;;;22.08;11.40;;;28.70;80.30;;;;;;4913597;29;20040;-92
2021/09/07 11:31:12;;;;;;;;;;;28.90;79.50;;;;;;4916906;29;20545;-93
2021/09/07 11:33:41;;;;;;;19.45;12.23;;;28.90;78.60;;;;;;4916982;29;19919;-92
2021/09/07 11:36:14;;;;;;;23.17;12.27;;;29.00;78.30;;;;;;4900776;29;20141;-92
2021/09/07 11:38:42;;;;;;;19.15;12.85;;;29.10;77.40;;;;;;4916873;29;20141;-92
2021/09/07 11:41:13;;;;;;;17.17;10.45;;;29.20;76.50;;;;;;4915476;29;20451;-93
2021/09/07 11:43:42;;;;;;;18.02;11.68;;;29.40;76.30;;;;;;4912533;29;20028;-92
2021/09/07 11:46:09;;;;;;;19.73;11.45;;;29.60;75.90;;;;;;4900388;29;20040;-92
2021/09/07 11:48:36;;;;;;;18.88;10.88;;;29.80;75.20;;;;;;4911028;29;20036;-91
2021/09/07 11:51:03;;;;;;;16.55;10.80;;;30.10;74.60;;;;;;4915686;29;20028;-92
2021/09/07 11:53:28;;;;;;;17.95;11.95;;;30.30;73.30;;;;;;4900780;29;20055;-90
2021/09/07 11:55:55;;;;;;;18.08;10.88;;;30.40;72.30;;;;;;4901180;29;20502;-91
2021/09/07 11:58:33;;;;;;;16.00;11.02;;;30.50;71.70;;;;;;4902473;29;20136;-93
2021/09/07 12:01:00;;;;;;;18.67;10.20;;;30.60;71.60;;;;;;4906081;29;20104;-92
2021/09/07 12:03:45;;;;;;;17.33;9.88;;;30.80;71.00;;;;;;4910448;29;20034;-93
2021/09/07 12:06:53;;;;;;;18.45;11.27;;;30.90;70.20;;;;;;4927419;29;20059;-91
2021/09/07 12:09:23;;;;;;;17.38;11.10;;;30.90;68.60;;;;;;4851271;29;20042;-92
2021/09/07 12:11:52;;;;;;;16.97;10.63;;;30.80;68.70;;;;;;4867982;29;20032;-92
2021/09/07 12:14:23;;;;;;;18.52;10.02;;;30.90;68.70;;;;;;4862011;29;20083;-92
2021/09/07 12:16:49;;;;;;;19.27;10.45;;;31.00;68.50;;;;;;4859280;29;20038;-92
2021/09/07 12:19:27;;;;;;;20.70;12.30;;;31.10;67.20;;;;;;4859198;29;20040;-91
2021/09/07 12:22:13;;;;;;;14.55;9.88;;;31.00;67.40;;;;;;4844320;29;20034;-91
2021/09/07 12:24:41;;;;;;;18.10;10.77;;;31.00;67.70;;;;;;4859404;29;20041;-92
2021/09/07 12:27:20;;;;;;;15.13;9.98;;;31.10;67.20;;;;;;4859740;29;20182;-91
2021/09/07 12:30:09;;;;;;;15.20;9.38;;;31.10;65.20;;;;;;4862208;29;20038;-90
2021/09/07 12:32:58;;;;;;;15.40;10.00;;;30.90;65.90;;;;;;4862673;29;20136;-92
2021/09/07 12:35:51;;;;;;;13.85;8.52;;;31.00;66.10;;;;;;4862740;29;20029;-92
2021/09/07 12:38:26;;;;;;;14.00;9.35;;;31.10;65.80;;;;;;4857399;29;20058;-91
2021/09/07 12:40:57;;;;;;;18.52;9.95;;;31.20;65.60;;;;;;4910930;29;20490;-91
2021/09/07 12:43:27;;;;;;;18.38;9.40;;;31.50;65.40;;;;;;4903496;29;20114;-91
2021/09/07 12:46:00;;;;;;;13.23;8.70;;;31.50;64.50;;;;;;4903552;29;20063;-93
2021/09/07 12:48:26;;;;;;;15.27;8.65;;;31.70;64.50;;;;;;4902973;29;20515;-91
2021/09/07 12:50:52;;;;;;;11.02;7.47;;;32.10;63.90;;;;;;4917007;29;20028;-91
2021/09/07 12:53:22;;;;;;;9.82;7.93;;;32.20;63.00;;;;;;4915299;29;20111;-91
2021/09/07 12:55:48;;;;;;;12.52;7.50;;;32.20;61.70;;;;;;4897895;29;20047;-91
2021/09/07 12:58:14;;;;;;;13.10;7.43;;;32.20;61.40;;;;;;4909985;29;20036;-91
2021/09/07 13:00:42;;;;;;;12.90;8.00;;;32.20;61.40;;;;;;4903115;29;20534;-90
2021/09/07 13:03:11;;;;;;;12.07;8.45;;;32.30;61.00;;;;;;4902814;29;20104;-93
2021/09/07 13:05:37;;;;;;;13.50;7.22;;;32.40;60.70;;;;;;4903574;29;20024;-92